Time;durP1;ratioP1;P1;durP2;ratioP2;P2;SDS_P1;SDS_P2;PMS_P1;PMS_P2;Temp;Humidity;BMP_temperature;BMP_pressure;BME280_temperature;BME280_humidity;BME280_pressure;Samples;Min_cycle;Max_cycle;Signal;HPM_P1;HPM_P2
2023/03/07 00:01:57;;;;;;;11.32;8.23;;;;;;;0.22;100.00;99563.13;5028172;28;20227;-68
2023/03/07 00:04:26;;;;;;;12.73;7.30;;;;;;;0.25;100.00;99563.59;5031299;28;20188;-68
2023/03/07 00:06:56;;;;;;;8.75;6.90;;;;;;;-0.03;100.00;99552.50;5032778;28;20279;-68
2023/03/07 00:09:26;;;;;;;14.20;7.80;;;;;;;0.03;100.00;99552.81;5045951;28;20583;-69
2023/03/07 00:11:56;;;;;;;14.65;7.40;;;;;;;-0.12;100.00;99552.66;5044027;28;20235;-69
2023/03/07 00:14:25;;;;;;;12.38;8.05;;;;;;;0.03;100.00;99548.34;5036893;28;20228;-67
2023/03/07 00:16:54;;;;;;;13.18;8.82;;;;;;;0.12;100.00;99544.66;5035601;28;20212;-68
2023/03/07 00:19:23;;;;;;;14.95;8.85;;;;;;;-0.04;100.00;99542.00;5048109;28;20670;-69
2023/03/07 00:21:52;;;;;;;11.90;7.95;;;;;;;-0.12;100.00;99539.38;5046415;28;20197;-69
2023/03/07 00:24:21;;;;;;;17.30;7.95;;;;;;;0.03;100.00;99535.03;5049897;28;20207;-69
2023/03/07 00:26:50;;;;;;;15.40;9.35;;;;;;;0.07;100.00;99532.88;5045777;28;20230;-68
2023/03/07 00:29:21;;;;;;;9.68;7.30;;;;;;;-0.13;100.00;99527.91;5036166;28;20220;-68
2023/03/07 00:36:49;;;;;;;12.68;10.05;;;;;;;-0.17;100.00;99515.09;5013997;28;20304;-69
2023/03/07 00:39:18;;;;;;;17.90;8.70;;;;;;;-0.06;100.00;99501.47;5031617;28;20191;-68
2023/03/07 00:41:47;;;;;;;13.05;8.95;;;;;;;-0.12;100.00;99505.63;5045402;28;20671;-69
2023/03/07 00:44:16;;;;;;;17.55;10.15;;;;;;;-0.10;100.00;99503.63;5032386;28;20205;-69
2023/03/07 00:46:47;;;;;;;12.55;7.78;;;;;;;-0.06;100.00;99491.69;5036838;28;20686;-72
2023/03/07 00:49:16;;;;;;;11.52;8.20;;;;;;;0.04;100.00;99480.84;5045466;28;20220;-69
2023/03/07 00:51:45;;;;;;;13.90;10.00;;;;;;;0.12;100.00;99478.16;5032326;28;20698;-68
2023/03/07 00:54:14;;;;;;;15.10;9.10;;;;;;;0.14;100.00;99470.88;5037012;28;20198;-69
2023/03/07 00:56:44;;;;;;;16.75;9.85;;;;;;;0.04;100.00;99464.91;5038186;28;20195;-68
2023/03/07 00:59:13;;;;;;;15.32;9.23;;;;;;;0.09;100.00;99459.06;5032319;28;20293;-68
2023/03/07 01:01:43;;;;;;;14.13;9.27;;;;;;;-0.20;100.00;99451.66;5032003;28;20642;-69
2023/03/07 01:04:13;;;;;;;14.63;8.35;;;;;;;0.04;100.00;99448.94;5032001;28;20208;-69
2023/03/07 01:06:42;;;;;;;13.65;9.80;;;;;;;-0.10;100.00;99446.97;5031905;28;20204;-69
2023/03/07 01:09:12;;;;;;;17.83;10.25;;;;;;;0.13;100.00;99431.13;5031950;28;20229;-69
2023/03/07 01:11:41;;;;;;;16.38;10.93;;;;;;;0.27;100.00;99428.59;5040030;28;20679;-68
2023/03/07 01:14:11;;;;;;;18.50;10.40;;;;;;;0.11;100.00;99425.13;5048666;28;20666;-69
2023/03/07 01:16:40;;;;;;;15.88;9.95;;;;;;;0.06;100.00;99420.31;5034605;28;20205;-67
2023/03/07 01:19:12;;;;;;;17.75;11.93;;;;;;;0.05;100.00;99413.34;5036958;28;20202;-67
2023/03/07 01:21:43;;;;;;;18.95;11.98;;;;;;;0.04;100.00;99401.06;5040478;28;20722;-68
2023/03/07 01:24:14;;;;;;;18.52;10.32;;;;;;;0.14;100.00;99404.38;5033964;28;20208;-69
2023/03/07 01:26:44;;;;;;;18.27;10.48;;;;;;;-0.07;100.00;99393.44;5051902;28;20226;-69
2023/03/07 01:29:13;;;;;;;17.42;11.07;;;;;;;0.11;100.00;99396.72;5042792;28;20250;-67
2023/03/07 01:31:42;;;;;;;17.08;11.27;;;;;;;0.15;100.00;99390.03;5033414;28;20216;-68
2023/03/07 01:34:13;;;;;;;17.52;9.98;;;;;;;0.09;100.00;99382.78;5032702;28;20687;-67
2023/03/07 01:36:43;;;;;;;19.50;11.68;;;;;;;0.12;100.00;99379.75;5047896;28;20274;-68
2023/03/07 01:39:15;;;;;;;16.88;9.55;;;;;;;0.17;100.00;99374.75;5029651;28;20587;-68
2023/03/07 01:41:55;;;;;;;18.27;12.05;;;;;;;-0.04;100.00;99367.34;5035204;28;20197;-69
2023/03/07 01:44:29;;;;;;;22.40;10.18;;;;;;;-0.16;100.00;99351.94;5034228;28;20197;-69
2023/03/07 01:47:00;;;;;;;16.20;10.43;;;;;;;-0.03;100.00;99353.03;5031349;28;20220;-68
2023/03/07 01:49:45;;;;;;;16.02;11.48;;;;;;;-0.03;100.00;99336.25;5043846;28;20230;-68
2023/03/07 01:52:20;;;;;;;19.65;11.23;;;;;;;0.05;100.00;99336.22;5011749;28;20252;-69
2023/03/07 01:54:58;;;;;;;19.98;11.18;;;;;;;0.08;100.00;99330.56;5019621;28;20208;-67
2023/03/07 01:57:32;;;;;;;22.30;11.82;;;;;;;0.02;100.00;99312.63;5037775;28;20231;-68
2023/03/07 02:00:07;;;;;;;14.18;10.13;;;;;;;0.05;100.00;99304.31;5051990;28;20193;-67
2023/03/07 02:02:43;;;;;;;19.00;11.50;;;;;;;0.16;100.00;99303.09;5044809;28;20577;-67
2023/03/07 02:05:22;;;;;;;27.73;14.32;;;;;;;0.15;100.00;99301.44;5038176;28;20655;-68
2023/03/07 02:07:54;;;;;;;21.63;13.13;;;;;;;-0.06;100.00;99294.06;5051401;28;20219;-68
2023/03/07 02:10:26;;;;;;;19.33;10.75;;;;;;;0.13;100.00;99293.66;5039013;28;20208;-69
2023/03/07 02:12:56;;;;;;;22.10;12.55;;;;;;;0.10;100.00;99287.84;5033390;28;20206;-68
2023/03/07 02:15:25;;;;;;;23.45;12.20;;;;;;;0.15;100.00;99296.94;5031639;28;20189;-67
2023/03/07 02:17:55;;;;;;;21.05;13.85;;;;;;;0.04;100.00;99278.75;5031733;28;20299;-66
2023/03/07 02:20:33;;;;;;;22.55;13.50;;;;;;;0.07;100.00;99270.41;5031612;28;20205;-65
2023/03/07 02:24:00;;;;;;;24.08;13.48;;;;;;;0.01;100.00;99263.09;5053811;28;20386;-67
2023/03/07 02:26:43;;;;;;;24.27;13.43;;;;;;;0.21;100.00;99259.00;5042543;28;20245;-67
2023/03/07 02:29:13;;;;;;;25.85;14.20;;;;;;;0.17;100.00;99249.72;5043445;28;20204;-68
2023/03/07 02:31:45;;;;;;;23.33;13.23;;;;;;;0.13;100.00;99251.09;5041444;28;20676;-68
2023/03/07 02:34:20;;;;;;;26.95;15.25;;;;;;;0.18;100.00;99237.25;5041235;28;20204;-69
2023/03/07 02:36:55;;;;;;;26.38;16.25;;;;;;;0.25;100.00;99228.38;5046949;28;20231;-69
2023/03/07 02:39:28;;;;;;;30.45;14.43;;;;;;;0.41;100.00;99227.47;5067025;28;20232;-68
2023/03/07 02:42:06;;;;;;;29.58;15.82;;;;;;;0.37;100.00;99219.00;5016211;28;20197;-68
2023/03/07 02:44:45;;;;;;;26.70;15.07;;;;;;;0.39;100.00;99214.31;5037425;28;20203;-68
2023/03/07 02:47:17;;;;;;;31.60;16.20;;;;;;;0.56;100.00;99206.22;5039196;28;20229;-67
2023/03/07 02:49:46;;;;;;;38.30;19.33;;;;;;;0.55;100.00;99196.56;5017611;28;20260;-66
2023/03/07 02:52:15;;;;;;;26.73;16.08;;;;;;;0.50;100.00;99193.63;5061418;28;20196;-68
2023/03/07 02:54:44;;;;;;;32.88;19.77;;;;;;;0.50;100.00;99188.28;5040341;28;20693;-68
2023/03/07 03:05:45;;;;;;;35.38;20.48;;;;;;;0.66;100.00;99158.88;4968727;23;20239;-68
2023/03/07 03:08:14;;;;;;;39.60;20.20;;;;;;;0.72;100.00;99155.50;4877623;29;20341;-68
2023/03/07 03:10:43;;;;;;;31.42;15.77;;;;;;;0.78;100.00;99149.44;4864084;29;20214;-67
2023/03/07 03:13:13;;;;;;;34.55;18.60;;;;;;;0.78;100.00;99144.09;4865231;29;20198;-68
2023/03/07 03:15:43;;;;;;;31.35;19.38;;;;;;;0.61;100.00;99132.81;4864213;29;20210;-68
2023/03/07 03:18:13;;;;;;;34.30;20.88;;;;;;;0.84;100.00;99122.09;4872446;29;20230;-69
2023/03/07 03:20:42;;;;;;;29.83;17.20;;;;;;;0.87;100.00;99117.22;4865714;29;20657;-68
2023/03/07 03:23:13;;;;;;;35.58;19.05;;;;;;;0.84;100.00;99106.94;4867279;29;20207;-69
2023/03/07 03:25:42;;;;;;;32.55;17.20;;;;;;;0.93;100.00;99105.00;4865500;29;20202;-67
2023/03/07 03:28:12;;;;;;;43.63;20.48;;;;;;;0.96;100.00;99102.00;4865042;29;20323;-68
2023/03/07 03:30:41;;;;;;;34.17;19.52;;;;;;;0.95;100.00;99089.69;4879403;29;20226;-68
2023/03/07 03:33:10;;;;;;;36.70;17.10;;;;;;;0.96;100.00;99085.19;4864371;29;20209;-67
2023/03/07 03:35:42;;;;;;;35.10;19.75;;;;;;;0.99;100.00;99082.13;4865628;29;20203;-68
2023/03/07 03:38:12;;;;;;;39.67;19.70;;;;;;;1.08;100.00;99078.38;4863967;29;20291;-68
2023/03/07 03:40:41;;;;;;;36.03;18.80;;;;;;;0.99;100.00;99077.63;4864451;29;20222;-68
2023/03/07 03:43:10;;;;;;;28.95;16.17;;;;;;;1.01;100.00;99070.31;4865292;29;20231;-67
2023/03/07 03:45:40;;;;;;;33.10;19.33;;;;;;;1.00;100.00;99068.66;4881555;29;20202;-66
2023/03/07 03:48:09;;;;;;;29.65;18.38;;;;;;;1.08;100.00;99055.22;4869684;29;20236;-68
2023/03/07 03:50:38;;;;;;;31.13;18.27;;;;;;;1.02;100.00;99055.94;4863882;29;20233;-67
2023/03/07 03:53:07;;;;;;;40.10;19.10;;;;;;;1.04;100.00;99047.78;4857521;29;20200;-68
2023/03/07 03:55:37;;;;;;;30.45;17.98;;;;;;;1.10;100.00;99047.88;4864153;29;20206;-68
2023/03/07 03:58:06;;;;;;;32.25;18.35;;;;;;;1.10;100.00;99042.56;4863626;29;20317;-68
2023/03/07 04:00:35;;;;;;;35.85;18.00;;;;;;;1.14;100.00;99043.81;4860532;29;20200;-68
2023/03/07 04:03:04;;;;;;;41.72;19.38;;;;;;;1.18;100.00;99038.94;4865178;29;20198;-69
2023/03/07 04:05:34;;;;;;;28.67;16.95;;;;;;;1.11;100.00;99030.91;4866866;29;20272;-68
2023/03/07 04:11:00;;;;;;;33.83;16.50;;;;;;;1.22;100.00;99018.91;4893468;24;20264;-67
2023/03/07 04:13:30;;;;;;;27.67;17.38;;;;;;;1.30;100.00;99024.97;4811708;29;20231;-67
2023/03/07 04:15:59;;;;;;;31.30;16.45;;;;;;;1.28;100.00;99003.00;4806045;29;20259;-69
2023/03/07 04:18:28;;;;;;;38.42;19.05;;;;;;;1.32;100.00;99014.09;4799283;29;20234;-68
2023/03/07 04:20:57;;;;;;;39.95;19.73;;;;;;;1.30;100.00;99005.47;4787352;29;20235;-69
2023/03/07 04:23:27;;;;;;;31.85;18.30;;;;;;;1.41;99.59;98993.47;4802350;29;20578;-67
2023/03/07 04:25:59;;;;;;;35.92;16.48;;;;;;;1.51;99.25;98994.81;4790667;29;20646;-68
2023/03/07 04:28:42;;;;;;;30.90;16.15;;;;;;;1.56;98.96;98988.91;4787342;29;20326;-68
2023/03/07 04:31:17;;;;;;;36.38;17.02;;;;;;;1.60;98.39;98979.50;4802464;29;20222;-68
2023/03/07 04:33:47;;;;;;;29.42;16.70;;;;;;;1.54;98.79;98970.47;4802287;29;20277;-68
2023/03/07 04:36:17;;;;;;;28.98;17.10;;;;;;;1.68;98.52;98969.56;4787260;29;20198;-68
2023/03/07 04:38:47;;;;;;;27.55;17.30;;;;;;;1.62;98.78;98962.31;4794124;29;20245;-68
2023/03/07 04:41:19;;;;;;;32.55;18.40;;;;;;;1.60;99.08;98964.34;4789605;29;20289;-69
2023/03/07 04:43:52;;;;;;;32.85;16.58;;;;;;;1.60;99.24;98952.84;4808155;29;20212;-69
2023/03/07 04:46:23;;;;;;;28.20;16.05;;;;;;;1.62;99.40;98940.16;4797813;29;20202;-68
2023/03/07 04:48:52;;;;;;;26.40;15.25;;;;;;;1.66;99.57;98941.44;4801718;29;20287;-68
2023/03/07 04:51:21;;;;;;;31.58;17.92;;;;;;;1.61;100.00;98943.84;4801772;29;20709;-68
2023/03/07 04:53:51;;;;;;;29.15;17.45;;;;;;;1.64;100.00;98943.47;4801671;29;20294;-68
2023/03/07 04:56:22;;;;;;;33.15;17.40;;;;;;;1.51;100.00;98928.19;4805733;29;20214;-68
2023/03/07 04:58:51;;;;;;;27.35;15.25;;;;;;;1.55;100.00;98933.97;4801863;29;20261;-68
2023/03/07 05:01:20;;;;;;;26.92;15.90;;;;;;;1.45;100.00;98928.13;4801962;29;20297;-68
2023/03/07 05:03:49;;;;;;;30.77;18.10;;;;;;;1.39;100.00;98919.06;4793475;29;20300;-68
2023/03/07 05:06:20;;;;;;;31.65;17.48;;;;;;;1.35;100.00;98907.16;4806688;29;20214;-68
2023/03/07 05:08:51;;;;;;;26.80;15.07;;;;;;;1.29;100.00;98907.91;4786699;29;20223;-66
2023/03/07 05:11:22;;;;;;;29.42;16.58;;;;;;;1.31;100.00;98912.00;4784040;30;20276;-69
2023/03/07 05:13:52;;;;;;;32.28;15.63;;;;;;;1.29;100.00;98903.41;4801610;29;20245;-67
2023/03/07 05:16:23;;;;;;;35.53;19.20;;;;;;;1.24;100.00;98900.47;4791855;29;20312;-68
2023/03/07 05:18:52;;;;;;;25.65;14.38;;;;;;;1.22;100.00;98899.84;4802246;29;20323;-68
2023/03/07 05:21:23;;;;;;;31.42;17.30;;;;;;;1.33;100.00;98895.84;4802481;29;20684;-67
2023/03/07 05:23:52;;;;;;;30.80;16.75;;;;;;;1.23;100.00;98887.34;4802405;29;20203;-68
2023/03/07 05:26:23;;;;;;;30.17;17.15;;;;;;;1.14;100.00;98889.31;4786865;30;20309;-67
2023/03/07 05:28:51;;;;;;;29.67;16.58;;;;;;;1.21;100.00;98887.53;4787026;29;20238;-68
2023/03/07 05:31:20;;;;;;;32.75;18.80;;;;;;;1.20;100.00;98883.25;4802007;29;20222;-67
2023/03/07 05:33:50;;;;;;;29.38;16.20;;;;;;;1.16;100.00;98886.47;4801917;29;20685;-68
2023/03/07 05:36:19;;;;;;;32.50;17.70;;;;;;;1.20;100.00;98883.25;4787510;29;20298;-69
2023/03/07 05:38:48;;;;;;;26.42;16.60;;;;;;;1.30;100.00;98883.75;4801387;29;20298;-67
2023/03/07 05:41:17;;;;;;;28.65;18.35;;;;;;;1.21;100.00;98884.88;4788803;29;20639;-68
2023/03/07 05:43:48;;;;;;;34.72;17.98;;;;;;;1.30;100.00;98870.41;4801770;29;20238;-68
2023/03/07 05:46:17;;;;;;;30.45;16.83;;;;;;;1.37;100.00;98866.97;4804723;29;20236;-69
2023/03/07 05:48:46;;;;;;;29.10;17.88;;;;;;;1.30;100.00;98872.25;4789232;29;20233;-67
2023/03/07 05:51:15;;;;;;;27.75;16.48;;;;;;;1.31;100.00;98872.03;4803904;29;20225;-68
2023/03/07 05:53:45;;;;;;;23.00;15.10;;;;;;;1.37;100.00;98869.63;4791191;29;20263;-68
2023/03/07 05:56:14;;;;;;;27.85;17.20;;;;;;;1.33;100.00;98857.72;4786772;30;20213;-68
2023/03/07 05:58:44;;;;;;;27.05;17.60;;;;;;;1.31;100.00;98861.38;4798068;29;20265;-67
2023/03/07 06:01:14;;;;;;;29.45;16.70;;;;;;;1.38;100.00;98864.13;4794638;29;20578;-68
2023/03/07 06:03:43;;;;;;;27.98;15.77;;;;;;;1.47;100.00;98870.13;4791992;29;20241;-69
2023/03/07 06:06:13;;;;;;;29.25;19.00;;;;;;;1.47;100.00;98867.47;4793962;29;20248;-68
2023/03/07 06:08:42;;;;;;;39.35;21.08;;;;;;;1.39;100.00;98859.63;4806209;29;20234;-66
2023/03/07 06:11:12;;;;;;;30.42;18.25;;;;;;;1.41;100.00;98854.91;4809284;29;20241;-67
2023/03/07 06:13:41;;;;;;;38.33;18.98;;;;;;;1.44;100.00;98873.19;4801344;29;20600;-67
2023/03/07 06:16:10;;;;;;;42.08;20.98;;;;;;;1.55;100.00;98862.00;4804991;29;20643;-68
2023/03/07 06:18:43;;;;;;;35.80;23.13;;;;;;;1.46;100.00;98853.31;4811951;29;20226;-67
2023/03/07 06:21:19;;;;;;;30.88;20.52;;;;;;;1.53;100.00;98858.69;4791074;29;20295;-68
2023/03/07 06:23:48;;;;;;;31.27;18.98;;;;;;;1.57;100.00;98858.13;4805710;29;20284;-68
2023/03/07 06:26:20;;;;;;;31.88;19.02;;;;;;;1.61;100.00;98856.69;4789833;29;20207;-68
2023/03/07 06:28:53;;;;;;;33.35;19.75;;;;;;;1.69;100.00;98869.09;4791973;29;20228;-67
2023/03/07 06:31:23;;;;;;;39.65;19.42;;;;;;;1.67;100.00;98868.44;4809918;29;20719;-68
2023/03/07 06:33:54;;;;;;;33.17;19.27;;;;;;;1.79;100.00;98861.56;4790319;29;20212;-68
2023/03/07 06:36:26;;;;;;;38.05;18.92;;;;;;;1.85;100.00;98854.59;4792688;29;20316;-68
2023/03/07 06:38:59;;;;;;;32.42;18.77;;;;;;;1.82;100.00;98866.50;4797107;29;20210;-68
2023/03/07 06:41:29;;;;;;;29.92;17.67;;;;;;;1.93;100.00;98860.63;4805609;29;20210;-69
2023/03/07 06:44:00;;;;;;;28.88;17.50;;;;;;;2.00;100.00;98866.81;4805419;29;20216;-67
2023/03/07 06:46:32;;;;;;;29.13;20.17;;;;;;;2.00;100.00;98866.81;4803617;29;20292;-67
2023/03/07 06:49:07;;;;;;;29.60;20.15;;;;;;;2.02;100.00;98870.13;4803876;29;20206;-68
2023/03/07 06:51:37;;;;;;;34.28;20.10;;;;;;;2.04;100.00;98862.72;4803985;29;20764;-67
2023/03/07 06:54:10;;;;;;;28.13;18.42;;;;;;;2.15;100.00;98875.50;4808314;29;20221;-67
2023/03/07 06:56:39;;;;;;;31.30;19.67;;;;;;;2.20;100.00;98877.59;4803854;29;20214;-67
2023/03/07 06:59:11;;;;;;;33.70;18.80;;;;;;;2.30;100.00;98874.56;4796726;29;20206;-67
2023/03/07 07:01:40;;;;;;;27.92;18.38;;;;;;;2.19;100.00;98863.41;4797490;29;20220;-67
2023/03/07 07:04:11;;;;;;;30.02;18.58;;;;;;;2.14;100.00;98871.19;4806612;29;20210;-66
2023/03/07 07:06:42;;;;;;;32.92;20.35;;;;;;;2.32;100.00;98870.69;4790323;29;20297;-68
2023/03/07 07:09:13;;;;;;;32.63;18.25;;;;;;;2.37;100.00;98868.22;4796772;29;20222;-69
2023/03/07 07:11:42;;;;;;;29.30;17.70;;;;;;;2.37;100.00;98862.06;4817432;29;20229;-67
2023/03/07 07:14:13;;;;;;;32.33;17.35;;;;;;;2.39;100.00;98862.69;4795528;29;20202;-68
2023/03/07 07:16:43;;;;;;;34.33;18.50;;;;;;;2.34;100.00;98863.28;4794180;29;20202;-68
2023/03/07 07:19:13;;;;;;;31.88;18.55;;;;;;;2.38;100.00;98861.03;4796797;29;20306;-67
2023/03/07 07:21:42;;;;;;;31.70;18.38;;;;;;;2.45;100.00;98862.72;4805914;29;20259;-69
2023/03/07 07:24:13;;;;;;;23.83;16.85;;;;;;;2.52;100.00;98860.06;4804885;29;20563;-69
2023/03/07 07:26:43;;;;;;;30.13;18.00;;;;;;;2.60;100.00;98852.72;4792632;29;20202;-67
2023/03/07 07:29:12;;;;;;;24.95;17.15;;;;;;;2.75;100.00;98852.56;4812786;29;20238;-69
2023/03/07 07:31:42;;;;;;;26.38;16.00;;;;;;;2.77;99.43;98850.50;4807408;29;20666;-67
2023/03/07 07:34:13;;;;;;;25.48;16.17;;;;;;;2.79;98.66;98845.78;4792843;29;20211;-68
2023/03/07 07:36:42;;;;;;;21.60;14.02;;;;;;;2.98;98.10;98845.00;4806770;29;20226;-67
2023/03/07 07:39:14;;;;;;;26.15;15.65;;;;;;;3.13;97.80;98849.34;4799985;29;20555;-68
2023/03/07 07:41:46;;;;;;;19.90;13.15;;;;;;;3.18;98.19;98857.56;4807346;29;20198;-66
2023/03/07 07:44:17;;;;;;;24.02;15.90;;;;;;;3.18;97.60;98849.53;4790524;29;20217;-69
2023/03/07 07:46:54;;;;;;;22.30;14.07;;;;;;;3.34;96.72;98838.47;4789817;29;20279;-69
2023/03/07 07:49:25;;;;;;;21.30;15.45;;;;;;;3.44;96.38;98846.88;4791001;29;20236;-68
2023/03/07 07:51:55;;;;;;;23.98;13.50;;;;;;;3.40;96.39;98840.28;4804691;29;20612;-69
2023/03/07 07:54:24;;;;;;;19.25;14.05;;;;;;;3.34;96.14;98841.94;4790928;29;20202;-69
2023/03/07 07:56:53;;;;;;;22.73;14.40;;;;;;;3.36;95.86;98847.09;4806356;29;20237;-69
2023/03/07 07:59:23;;;;;;;23.83;14.02;;;;;;;3.38;95.61;98855.72;4789288;30;20286;-68
2023/03/07 08:01:52;;;;;;;22.52;15.00;;;;;;;3.28;96.11;98849.97;4803592;29;20233;-69
2023/03/07 08:04:21;;;;;;;29.58;12.93;;;;;;;3.39;96.58;98854.69;4814225;29;20656;-68
2023/03/07 08:06:52;;;;;;;27.38;13.70;;;;;;;3.72;95.71;98850.16;4799469;29;20226;-68
2023/03/07 08:09:21;;;;;;;21.80;12.60;;;;;;;3.61;94.84;98853.44;4804998;29;20325;-67
2023/03/07 08:11:50;;;;;;;24.65;15.27;;;;;;;3.67;94.64;98852.63;4803132;29;20241;-68
2023/03/07 08:14:19;;;;;;;23.95;14.00;;;;;;;3.76;94.73;98851.38;4794691;29;20717;-69
2023/03/07 08:16:48;;;;;;;19.10;12.82;;;;;;;3.88;94.32;98855.06;4805642;29;20247;-68
2023/03/07 08:19:17;;;;;;;17.42;12.70;;;;;;;3.61;94.42;98858.81;4801232;29;20293;-68
2023/03/07 08:21:46;;;;;;;21.30;13.02;;;;;;;3.78;94.71;98857.34;4805104;29;20193;-66
2023/03/07 08:24:17;;;;;;;26.60;12.85;;;;;;;3.69;94.27;98850.56;4805287;29;20697;-68
2023/03/07 08:26:46;;;;;;;29.75;14.02;;;;;;;3.48;94.42;98853.47;4802446;29;20210;-67
2023/03/07 08:29:15;;;;;;;24.70;12.68;;;;;;;3.39;96.18;98866.19;4789216;29;20205;-68
2023/03/07 08:31:45;;;;;;;19.02;10.68;;;;;;;3.28;97.13;98853.47;4804433;29;20222;-67
2023/03/07 08:34:14;;;;;;;24.95;12.52;;;;;;;3.26;97.97;98854.69;4795319;29;20314;-68
2023/03/07 08:36:43;;;;;;;20.70;11.52;;;;;;;3.26;99.11;98857.34;4797956;29;20217;-68
2023/03/07 08:39:12;;;;;;;19.38;12.70;;;;;;;3.33;98.79;98856.34;4800736;29;20202;-67
2023/03/07 08:41:43;;;;;;;27.92;14.25;;;;;;;3.36;98.23;98860.44;4801418;29;20286;-67
2023/03/07 08:44:12;;;;;;;24.58;14.10;;;;;;;3.53;98.01;98871.56;4812807;29;20679;-68
2023/03/07 08:46:41;;;;;;;23.90;14.25;;;;;;;3.71;98.22;98855.72;4804051;29;20239;-68
2023/03/07 08:49:10;;;;;;;23.08;12.73;;;;;;;3.92;98.18;98853.59;4803929;29;20203;-68
2023/03/07 08:51:39;;;;;;;22.75;13.90;;;;;;;4.01;96.34;98848.88;4801858;29;20275;-68
2023/03/07 08:54:08;;;;;;;18.63;12.20;;;;;;;4.12;94.99;98845.53;4810794;29;20236;-68
2023/03/07 08:56:37;;;;;;;19.92;15.10;;;;;;;4.24;95.72;98848.38;4798403;29;20298;-67
2023/03/07 08:59:07;;;;;;;24.35;14.15;;;;;;;4.27;94.94;98847.97;4803130;29;20203;-69
2023/03/07 09:01:37;;;;;;;21.83;13.05;;;;;;;4.25;94.42;98842.84;4808178;29;20230;-68
2023/03/07 09:04:08;;;;;;;23.08;14.80;;;;;;;4.37;93.60;98842.97;4806960;29;20234;-67
2023/03/07 09:06:37;;;;;;;18.40;11.25;;;;;;;4.55;92.55;98843.09;4799195;29;20229;-68
2023/03/07 09:09:07;;;;;;;16.95;11.65;;;;;;;4.70;92.28;98843.66;4804973;29;20223;-68
2023/03/07 09:11:36;;;;;;;28.70;15.32;;;;;;;4.76;90.55;98858.06;4804460;29;20301;-68
2023/03/07 09:14:06;;;;;;;17.48;11.45;;;;;;;4.55;91.44;98845.78;4786797;29;20583;-68
2023/03/07 09:16:35;;;;;;;18.15;12.40;;;;;;;4.49;92.21;98854.69;4788503;29;20735;-67
2023/03/07 09:19:04;;;;;;;20.08;12.45;;;;;;;4.43;91.21;98846.66;4790143;29;20207;-68
2023/03/07 09:21:33;;;;;;;16.02;11.30;;;;;;;4.62;91.90;98846.59;4788555;29;20205;-69
2023/03/07 09:24:16;;;;;;;18.25;10.20;;;;;;;4.54;91.39;98852.19;4802027;29;20209;-69
2023/03/07 09:26:45;;;;;;;14.95;10.85;;;;;;;4.59;90.99;98855.06;4798242;29;20608;-67
2023/03/07 09:29:15;;;;;;;14.35;10.65;;;;;;;4.26;91.97;98846.34;4801516;29;20199;-69
2023/03/07 09:31:45;;;;;;;16.45;10.38;;;;;;;4.38;93.37;98849.97;4788366;29;20206;-68
2023/03/07 09:34:14;;;;;;;15.02;9.18;;;;;;;4.32;93.14;98856.19;4787579;29;20301;-68
2023/03/07 09:36:43;;;;;;;17.80;10.05;;;;;;;4.57;92.69;98851.75;4801073;29;20217;-69
2023/03/07 09:39:13;;;;;;;16.95;10.30;;;;;;;4.67;91.26;98844.09;4801604;29;20202;-68
2023/03/07 09:42:00;;;;;;;13.68;10.55;;;;;;;4.86;89.75;98842.34;4805046;29;20301;-68
2023/03/07 09:44:56;;;;;;;11.98;8.57;;;;;;;4.78;88.87;98850.63;4791969;29;20198;-68
2023/03/07 09:47:56;;;;;;;14.18;9.85;;;;;;;5.02;90.25;98841.84;4800655;29;20237;-68
2023/03/07 09:50:34;;;;;;;13.73;8.32;;;;;;;4.92;87.40;98833.44;4792151;29;20214;-69
2023/03/07 09:53:05;;;;;;;11.13;7.40;;;;;;;5.16;87.93;98832.66;4813825;29;20206;-69
2023/03/07 09:55:34;;;;;;;11.70;8.52;;;;;;;5.51;86.76;98830.31;4817100;29;20218;-67
2023/03/07 09:58:13;;;;;;;15.45;9.63;;;;;;;5.87;84.89;98828.75;4808660;29;20574;-67
2023/03/07 10:00:58;;;;;;;12.48;9.05;;;;;;;5.76;82.57;98822.22;4809683;29;20210;-67
2023/03/07 10:03:35;;;;;;;11.43;7.82;;;;;;;5.58;82.79;98820.34;4804980;29;20217;-66
2023/03/07 10:06:10;;;;;;;12.98;6.78;;;;;;;5.96;81.59;98824.75;4801018;29;20209;-69
2023/03/07 10:08:58;;;;;;;12.40;8.20;;;;;;;6.35;80.64;98832.38;4798058;29;20322;-68
2023/03/07 10:11:43;;;;;;;14.85;7.70;;;;;;;6.31;79.50;98825.81;4805302;29;20582;-69
2023/03/07 10:14:40;;;;;;;11.40;8.15;;;;;;;6.14;79.41;98822.09;4792054;29;20299;-68
2023/03/07 10:17:19;;;;;;;10.00;6.63;;;;;;;6.02;80.16;98827.38;4804531;29;20229;-67
2023/03/07 10:19:51;;;;;;;6.97;6.25;;;;;;;5.90;81.00;98822.97;4795587;29;20217;-68
2023/03/07 10:22:29;;;;;;;7.78;5.95;;;;;;;5.95;81.48;98815.91;4806507;29;20233;-68
2023/03/07 10:25:08;;;;;;;9.48;7.90;;;;;;;6.29;80.91;98821.72;4790406;29;20231;-68
2023/03/07 10:27:38;;;;;;;13.10;7.97;;;;;;;6.27;79.89;98821.09;4799496;29;20281;-69
2023/03/07 10:30:15;;;;;;;6.60;5.43;;;;;;;6.15;78.20;98818.34;4816050;29;20206;-69
2023/03/07 10:32:47;;;;;;;7.35;5.72;;;;;;;6.02;78.27;98821.19;4790553;29;20357;-71
2023/03/07 10:35:20;;;;;;;6.90;6.10;;;;;;;5.69;79.35;98827.69;4804052;29;20232;-69
2023/03/07 10:37:51;;;;;;;8.73;5.15;;;;;;;5.72;77.44;98830.94;4807606;29;20241;-70
2023/03/07 10:40:26;;;;;;;5.20;4.10;;;;;;;5.83;76.31;98811.44;4789412;29;20231;-70
2023/03/07 10:42:58;;;;;;;6.88;4.65;;;;;;;6.04;76.21;98824.47;4804133;29;20585;-71
2023/03/07 10:45:29;;;;;;;3.92;3.00;;;;;;;5.68;73.50;98814.47;4804955;29;20581;-70
2023/03/07 10:48:06;;;;;;;4.25;3.10;;;;;;;5.69;73.55;98832.22;4803997;29;20251;-70
2023/03/07 10:50:43;;;;;;;5.13;2.30;;;;;;;5.62;71.70;98829.59;4808090;29;20204;-69
2023/03/07 10:53:24;;;;;;;3.72;2.72;;;;;;;5.59;71.26;98822.00;4803250;29;20304;-70
2023/03/07 10:56:07;;;;;;;3.58;3.28;;;;;;;5.40;71.59;98822.97;4808446;29;20567;-70
2023/03/07 10:58:36;;;;;;;3.45;2.60;;;;;;;5.33;71.61;98822.19;4803857;29;20228;-70
2023/03/07 11:01:20;;;;;;;2.70;2.10;;;;;;;5.20;73.66;98819.63;4804210;29;20305;-69
2023/03/07 11:03:55;;;;;;;2.95;2.17;;;;;;;5.21;74.45;98814.06;4804137;29;20676;-70
2023/03/07 11:06:35;;;;;;;3.17;1.83;;;;;;;5.18;73.79;98816.38;4803653;29;20215;-69
2023/03/07 11:09:17;;;;;;;4.22;2.92;;;;;;;5.12;74.66;98798.47;4795808;29;20218;-69
2023/03/07 11:11:53;;;;;;;3.83;2.13;;;;;;;5.27;74.83;98808.88;4803454;29;20670;-70
2023/03/07 11:14:23;;;;;;;4.07;2.90;;;;;;;5.56;74.61;98800.97;4803302;29;20219;-72
2023/03/07 11:16:54;;;;;;;4.32;3.00;;;;;;;5.66;74.06;98795.91;4809713;29;20292;-69
2023/03/07 11:19:32;;;;;;;3.70;2.95;;;;;;;5.52;73.04;98794.38;4803386;29;20211;-70
2023/03/07 11:22:03;;;;;;;3.63;3.00;;;;;;;5.71;73.60;98781.03;4810526;29;20279;-70
2023/03/07 11:24:37;;;;;;;4.60;3.10;;;;;;;5.72;73.64;98779.97;4795307;29;20294;-70
2023/03/07 11:27:07;;;;;;;4.32;3.28;;;;;;;5.57;73.75;98791.88;4795931;29;20235;-70
2023/03/07 11:29:36;;;;;;;4.53;2.70;;;;;;;5.44;73.76;98796.53;4789182;29;20302;-71
2023/03/07 11:32:12;;;;;;;4.25;3.28;;;;;;;5.57;72.85;98793.72;4812902;29;20207;-70
2023/03/07 11:34:49;;;;;;;3.42;2.58;;;;;;;5.62;73.38;98794.72;4803124;29;20225;-69
2023/03/07 11:37:28;;;;;;;4.15;2.35;;;;;;;5.41;73.57;98787.09;4802844;29;20605;-69
2023/03/07 11:40:18;;;;;;;3.75;2.30;;;;;;;5.43;74.52;98778.78;4802632;29;20272;-70
2023/03/07 11:42:56;;;;;;;7.75;2.75;;;;;;;5.50;75.60;98788.44;4805993;29;20231;-70
2023/03/07 11:45:34;;;;;;;3.65;2.65;;;;;;;5.49;75.66;98781.44;4802321;29;20223;-70
2023/03/07 11:48:15;;;;;;;2.90;2.35;;;;;;;5.46;75.49;98779.19;4802704;29;20234;-70
2023/03/07 11:50:53;;;;;;;3.75;2.50;;;;;;;5.19;75.46;98777.75;4798048;29;20230;-69
2023/03/07 11:53:49;;;;;;;5.40;3.45;;;;;;;4.93;78.43;98772.63;4799908;29;20211;-69
2023/03/07 11:56:30;;;;;;;4.35;2.30;;;;;;;4.96;78.15;98774.84;4802555;29;20215;-71
2023/03/07 11:59:25;;;;;;;3.15;2.05;;;;;;;5.17;78.91;98766.44;4809696;29;20301;-69
2023/03/07 12:01:57;;;;;;;7.57;1.83;;;;;;;5.05;78.27;98770.88;4800174;29;20298;-70
2023/03/07 12:04:58;;;;;;;2.72;2.08;;;;;;;5.09;79.40;98772.06;4801616;29;20210;-69